createdAt,value
2016-09-14T05:43:24.963Z,2336
2016-09-14T05:44:25.603Z,2396
2016-09-14T05:45:26.259Z,2448
2016-09-14T05:46:26.928Z,2500
2016-09-14T05:47:27.632Z,2560
2016-09-14T05:48:28.367Z,2624
2016-09-14T05:49:29.046Z,2696
2016-09-14T05:50:29.719Z,2760
2016-09-14T05:51:30.412Z,2836
2016-09-14T05:52:31.067Z,2908
2016-09-14T05:53:31.726Z,2972
2016-09-14T05:54:32.561Z,3036
2016-09-14T05:55:33.651Z,3096
2016-09-14T05:56:34.333Z,3164
2016-09-14T05:57:35.049Z,3232
2016-09-14T05:58:35.708Z,3304
2016-09-14T05:59:36.400Z,3372
2016-09-14T06:00:37.203Z,3452
2016-09-14T06:01:38.075Z,3532
2016-09-14T06:02:38.823Z,3608
2016-09-14T06:03:39.553Z,3684
2016-09-14T06:04:41.841Z,3764
2016-09-14T06:05:43.407Z,3836
2016-09-14T06:06:44.530Z,3908
2016-09-14T06:07:45.212Z,3988
2016-09-14T06:08:45.919Z,4076
2016-09-14T06:09:46.549Z,4168
2016-09-14T06:10:47.223Z,4240
2016-09-14T06:11:48.216Z,4312
2016-09-14T06:12:49.142Z,4392
2016-09-14T06:13:49.879Z,4468
2016-09-14T06:14:50.578Z,4552
2016-09-14T06:15:51.253Z,4632
2016-09-14T06:16:51.936Z,4752
2016-09-14T06:17:52.661Z,4920
2016-09-14T06:18:53.403Z,6656
2016-09-14T06:19:54.158Z,9916
2016-09-14T06:20:54.893Z,10416
2016-09-14T06:21:55.569Z,10580
2016-09-14T06:22:56.229Z,8656
2016-09-14T06:23:56.940Z,6772
2016-09-14T06:24:57.557Z,5896
2016-09-14T06:25:58.630Z,5540
2016-09-14T06:26:59.288Z,5420
2016-09-14T06:27:59.980Z,5452
2016-09-14T06:29:00.695Z,5444
2016-09-14T06:30:01.370Z,5592
2016-09-14T06:31:02.091Z,5572
2016-09-14T06:32:03.070Z,5700
2016-09-14T06:33:05.130Z,6000
2016-09-14T06:34:05.847Z,6264
2016-09-14T06:35:07.976Z,6752
2016-09-14T06:36:09.507Z,7176
2016-09-14T06:37:13.244Z,8664
2016-09-14T06:38:13.603Z,13268
2016-09-14T06:39:14.290Z,14944
2016-09-14T06:40:14.921Z,17792
2016-09-14T06:41:15.674Z,21184
2016-09-14T06:42:16.294Z,22176
2016-09-14T06:43:17.020Z,21664
2016-09-14T06:44:17.704Z,20512
2016-09-14T06:45:18.383Z,19456
2016-09-14T06:46:19.080Z,19424
2016-09-14T06:47:19.752Z,20480
2016-09-14T06:48:20.392Z,22688
2016-09-14T06:49:21.075Z,23872
2016-09-14T06:50:21.739Z,24352
2016-09-14T06:51:22.417Z,23968
2016-09-14T06:52:23.054Z,22816
2016-09-14T06:53:23.712Z,22624
2016-09-14T06:54:24.399Z,23552
2016-09-14T06:55:25.070Z,23776
2016-09-14T06:56:25.796Z,24096
2016-09-14T06:57:26.525Z,23392
2016-09-14T06:58:27.131Z,23296
2016-09-14T06:59:27.848Z,24128
2016-09-14T07:00:28.556Z,25408
2016-09-14T07:01:29.296Z,25888
2016-09-14T07:02:29.961Z,25376
2016-09-14T07:03:30.637Z,24256
2016-09-14T07:04:31.340Z,24032
2016-09-14T07:05:32.017Z,25440
2016-09-14T07:06:32.697Z,27264
2016-09-14T07:07:33.365Z,28416
2016-09-14T07:08:34.027Z,26944
2016-09-14T07:09:34.697Z,25696
2016-09-14T07:10:35.361Z,26400
2016-09-14T07:11:36.005Z,27104
2016-09-14T07:12:36.651Z,28000
2016-09-14T07:13:37.309Z,28512
2016-09-14T07:14:37.976Z,29856
2016-09-14T07:15:38.654Z,33408
2016-09-14T07:16:39.322Z,37024
2016-09-14T07:17:39.983Z,38144
2016-09-14T07:18:40.651Z,35744
2016-09-14T07:19:41.309Z,30080
2016-09-14T07:20:41.954Z,25312
2016-09-14T07:21:42.642Z,23680
2016-09-14T07:22:43.301Z,22528
2016-09-14T07:23:43.971Z,21792
2016-09-14T07:24:44.649Z,22816
2016-09-14T07:25:45.308Z,28000
2016-09-14T07:26:46.021Z,36256
2016-09-14T07:27:46.693Z,43232
2016-09-14T07:28:47.344Z,45344
2016-09-14T07:29:48.119Z,41536
2016-09-14T07:30:48.848Z,33504
2016-09-14T07:31:49.498Z,27488
2016-09-14T07:32:50.173Z,25536
2016-09-14T07:33:50.821Z,26592
2016-09-14T07:34:51.470Z,28256
2016-09-14T07:35:52.113Z,31296
2016-09-14T07:36:52.768Z,33504
2016-09-14T07:37:53.441Z,34656
2016-09-14T07:38:54.097Z,35232
2016-09-14T07:39:54.742Z,35712
2016-09-14T07:40:55.396Z,37888
2016-09-14T07:41:56.085Z,39168
2016-09-14T07:42:56.727Z,39552
2016-09-14T07:43:57.378Z,39616
2016-09-14T07:44:58.028Z,38432
2016-09-14T07:45:58.686Z,37248
2016-09-14T07:46:59.682Z,35168
2016-09-14T07:48:00.527Z,33856
2016-09-14T07:49:01.338Z,32128
2016-09-14T07:50:02.135Z,32384
2016-09-14T07:51:03.142Z,34464
2016-09-14T07:52:08.541Z,37344
2016-09-14T07:53:09.216Z,38624
2016-09-14T07:54:09.873Z,36640
2016-09-14T07:55:10.533Z,34720
2016-09-14T07:56:11.207Z,33984
2016-09-14T07:57:11.866Z,35648
2016-09-14T07:58:12.578Z,40000
2016-09-14T07:59:13.665Z,43680
2016-09-14T08:00:14.485Z,45600
2016-09-14T08:01:15.163Z,44800
2016-09-14T08:02:15.841Z,41888
2016-09-14T08:03:17.579Z,39168
2016-09-14T08:04:18.268Z,36672
2016-09-14T08:05:18.917Z,36928
2016-09-14T08:06:19.590Z,39392
2016-09-14T08:07:20.237Z,42144
2016-09-14T08:08:20.890Z,44480
2016-09-14T08:09:21.564Z,45216
2016-09-14T08:10:22.238Z,45088
2016-09-14T08:11:22.899Z,44064
2016-09-14T08:12:23.660Z,43712
2016-09-14T08:13:24.339Z,44000
2016-09-14T08:14:25.018Z,44896
2016-09-14T08:15:25.662Z,44832
2016-09-14T08:16:26.318Z,44064
2016-09-14T08:17:26.992Z,43744
2016-09-14T08:18:27.663Z,44224
2016-09-14T08:19:28.303Z,44736
2016-09-14T08:20:28.969Z,44096
2016-09-14T08:21:29.608Z,42240
2016-09-14T08:22:30.250Z,40640
2016-09-14T08:23:30.900Z,42208
2016-09-14T08:24:31.607Z,45696
2016-09-14T08:25:32.247Z,46912
2016-09-14T08:26:32.921Z,46240
2016-09-14T08:27:33.582Z,44032
2016-09-14T08:28:34.239Z,43424
2016-09-14T08:29:34.964Z,45152
2016-09-14T08:30:35.639Z,47904
2016-09-14T08:31:36.315Z,49600
2016-09-14T08:32:36.980Z,50432
2016-09-14T08:33:37.648Z,48416
2016-09-14T08:34:38.330Z,47424
2016-09-14T08:35:39.004Z,49696
2016-09-14T08:36:39.667Z,52032
2016-09-14T08:37:40.350Z,51424
2016-09-14T08:38:41.013Z,48096
2016-09-14T08:39:41.678Z,44320
2016-09-14T08:40:42.353Z,42400
2016-09-14T08:41:43.011Z,41760
2016-09-14T08:42:43.684Z,42720
2016-09-14T08:43:44.338Z,45440
2016-09-14T08:44:44.987Z,48416
2016-09-14T08:45:45.669Z,49472
2016-09-14T08:46:46.355Z,48256
2016-09-14T08:47:47.034Z,46048
2016-09-14T08:48:47.678Z,45216
2016-09-14T08:49:48.350Z,46368
2016-09-14T08:50:49.023Z,49728
2016-09-14T08:51:49.700Z,54752
2016-09-14T08:52:50.433Z,56800
2016-09-14T08:53:51.097Z,56128
2016-09-14T08:54:51.764Z,53760
2016-09-14T08:55:52.434Z,52480
2016-09-14T08:56:53.107Z,51904
2016-09-14T08:57:53.774Z,52032
2016-09-14T08:58:54.452Z,52480
2016-09-14T08:59:55.124Z,51968
2016-09-14T09:00:55.802Z,50016
2016-09-14T09:01:56.463Z,47488
2016-09-14T09:02:57.116Z,45760
2016-09-14T09:03:57.819Z,46112
2016-09-14T09:04:58.501Z,47872
2016-09-14T09:05:59.190Z,48832
2016-09-14T09:06:59.874Z,41696
2016-09-14T09:08:00.536Z,24512
2016-09-14T09:09:01.243Z,24736
2016-09-14T09:10:01.965Z,25248
2016-09-14T09:11:02.640Z,32736
2016-09-14T09:12:03.339Z,38080
2016-09-14T09:13:04.010Z,24480
2016-09-14T09:14:04.678Z,24608
2016-09-14T09:15:05.353Z,26976
2016-09-14T09:16:06.042Z,29344
2016-09-14T09:17:06.700Z,40224
2016-09-14T09:18:07.358Z,46624
2016-09-14T09:19:08.032Z,39392
2016-09-14T09:20:08.710Z,19744
2016-09-14T09:21:09.401Z,24672
2016-09-14T09:22:10.109Z,37536
2016-09-14T09:23:10.778Z,29280
2016-09-14T09:24:11.453Z,10296
2016-09-14T09:25:12.129Z,7600
2016-09-14T09:26:12.795Z,7516
2016-09-14T09:27:13.444Z,7444
2016-09-14T09:28:14.098Z,7416
2016-09-14T09:29:14.750Z,7424
2016-09-14T09:30:15.420Z,7380
2016-09-14T09:31:16.110Z,7336
2016-09-14T09:32:16.774Z,7288
2016-09-14T09:33:17.430Z,7336
2016-09-14T09:34:18.097Z,7364
2016-09-14T09:35:18.748Z,7304
2016-09-14T09:36:19.391Z,7252
2016-09-14T09:37:20.036Z,7164
2016-09-14T09:38:20.696Z,7076
2016-09-14T09:39:21.371Z,6992
2016-09-14T09:40:22.027Z,7004
2016-09-14T09:41:22.670Z,6972
2016-09-14T09:42:23.331Z,6904
2016-09-14T09:43:23.984Z,6872
2016-09-14T09:44:24.626Z,6868
2016-09-14T09:45:25.268Z,6836
2016-09-14T09:46:25.917Z,6844
2016-09-14T09:47:26.613Z,6824
2016-09-14T09:48:27.250Z,6880
2016-09-14T09:49:27.929Z,6752
2016-09-14T09:50:28.592Z,6740
2016-09-14T09:51:29.242Z,6704
2016-09-14T09:52:29.897Z,6648
2016-09-14T09:53:30.555Z,6636
2016-09-14T09:54:31.231Z,6668
2016-09-14T09:55:31.881Z,6600
2016-09-14T09:56:32.539Z,6528
2016-09-14T09:57:33.204Z,6480
2016-09-14T09:58:33.863Z,6396
2016-09-14T09:59:34.559Z,6380
2016-09-14T10:00:35.239Z,6288
2016-09-14T10:01:35.900Z,6276
2016-09-14T10:02:36.562Z,6252
2016-09-14T10:03:37.226Z,6240
2016-09-14T10:04:37.914Z,6204
2016-09-14T10:05:38.698Z,6208
2016-09-14T10:06:39.380Z,6244
2016-09-14T10:07:40.058Z,6256
2016-09-14T10:08:40.720Z,6292
2016-09-14T10:09:41.380Z,6208
2016-09-14T10:10:42.048Z,6156
2016-09-14T10:11:44.937Z,6108
2016-09-14T10:12:44.932Z,6112
2016-09-14T10:13:45.605Z,6148
2016-09-14T10:14:46.269Z,6140
2016-09-14T10:15:46.922Z,6180
2016-09-14T10:16:47.596Z,6232
2016-09-14T10:17:48.261Z,6208
2016-09-14T10:18:48.921Z,6196
2016-09-14T10:19:49.567Z,6196
2016-09-14T10:20:50.309Z,6176
2016-09-14T10:21:50.957Z,6204
2016-09-14T10:22:51.613Z,6168
2016-09-14T10:23:52.261Z,6180
2016-09-14T10:24:52.936Z,6076
2016-09-14T10:25:53.606Z,6164
2016-09-14T10:26:54.291Z,6112
2016-09-14T10:27:54.956Z,6040
2016-09-14T10:28:55.606Z,5968
2016-09-14T10:29:56.249Z,5992
2016-09-14T10:30:56.898Z,5896
2016-09-14T10:31:57.540Z,5940
2016-09-14T10:32:58.207Z,5988
2016-09-14T10:33:58.876Z,5912
2016-09-14T10:34:59.585Z,5804
2016-09-14T10:36:00.238Z,5780
2016-09-14T10:37:00.887Z,5776
2016-09-14T10:38:01.543Z,5784
2016-09-14T10:39:02.207Z,5832
2016-09-14T10:40:02.848Z,5732
2016-09-14T10:41:03.506Z,5676
2016-09-14T10:42:04.164Z,5676
2016-09-14T10:43:05.674Z,5732
2016-09-14T10:44:06.389Z,5652
2016-09-14T10:45:07.031Z,5756
2016-09-14T10:46:07.782Z,5660
2016-09-14T10:47:08.457Z,5656
2016-09-14T10:48:09.116Z,5584
2016-09-14T10:49:09.826Z,5620
2016-09-14T10:50:10.481Z,5580
2016-09-14T10:51:11.273Z,5536
2016-09-14T10:52:12.085Z,5580
2016-09-14T10:53:12.740Z,5580
2016-09-14T10:54:13.418Z,5484
2016-09-14T10:55:14.209Z,5360
2016-09-14T10:56:14.865Z,5340
2016-09-14T10:57:15.547Z,5360
2016-09-14T10:58:16.401Z,5304
2016-09-14T10:59:17.131Z,5288
2016-09-14T11:00:17.871Z,5312
2016-09-14T11:01:18.529Z,5292
2016-09-14T11:02:19.180Z,5328
2016-09-14T11:03:19.847Z,5264
2016-09-14T11:04:20.507Z,5220
2016-09-14T11:05:21.162Z,5184
2016-09-14T11:06:21.815Z,5176
2016-09-14T11:07:22.471Z,5204
2016-09-14T11:08:23.139Z,5212
2016-09-14T11:09:23.786Z,5160
2016-09-14T11:10:24.447Z,5224
2016-09-14T11:11:25.089Z,5144
2016-09-14T11:12:25.758Z,5084
2016-09-14T11:13:26.417Z,5056
2016-09-14T11:14:27.081Z,5104
2016-09-14T11:15:27.762Z,5004
2016-09-14T11:16:28.438Z,5064
2016-09-14T11:17:29.084Z,5008
2016-09-14T11:18:29.735Z,5084
2016-09-14T11:19:30.386Z,4976
2016-09-14T11:20:31.060Z,4924
2016-09-14T11:21:31.724Z,4928
2016-09-14T11:22:32.400Z,4952
2016-09-14T11:23:33.091Z,5000
2016-09-14T11:24:33.769Z,4976
2016-09-14T11:25:34.428Z,4988
2016-09-14T11:26:35.084Z,4948
2016-09-14T11:27:36.186Z,4896
2016-09-14T11:28:36.712Z,4844
2016-09-14T11:29:37.371Z,4820
2016-09-14T11:30:38.045Z,4820
2016-09-14T11:31:38.704Z,4816
2016-09-14T11:32:39.376Z,4824
2016-09-14T11:33:40.055Z,4824
